sensor_id;sensor_type;location;lat;lon;timestamp;temperature;humidity
27759;DHT22;15148;48.972;12.794;2023-07-13T00:01:42;19.60;99.90
27759;DHT22;15148;48.972;12.794;2023-07-13T00:06:45;19.60;99.90
27759;DHT22;15148;48.972;12.794;2023-07-13T00:11:52;19.50;99.90
27759;DHT22;15148;48.972;12.794;2023-07-13T00:16:55;19.50;99.90
27759;DHT22;15148;48.972;12.794;2023-07-13T00:21:57;19.50;99.90
27759;DHT22;15148;48.972;12.794;2023-07-13T00:26:59;19.50;99.90
27759;DHT22;15148;48.972;12.794;2023-07-13T00:32:03;19.50;99.90
27759;DHT22;15148;48.972;12.794;2023-07-13T00:37:06;19.50;99.90
27759;DHT22;15148;48.972;12.794;2023-07-13T00:42:09;19.40;99.90
27759;DHT22;15148;48.972;12.794;2023-07-13T00:47:11;19.50;99.90
27759;DHT22;15148;48.972;12.794;2023-07-13T00:52:14;19.40;99.90
27759;DHT22;15148;48.972;12.794;2023-07-13T00:57:19;19.40;99.90
27759;DHT22;15148;48.972;12.794;2023-07-13T01:02:22;19.40;99.90
27759;DHT22;15148;48.972;12.794;2023-07-13T01:07:25;19.30;99.90
27759;DHT22;15148;48.972;12.794;2023-07-13T01:12:27;19.30;99.90
27759;DHT22;15148;48.972;12.794;2023-07-13T01:17:29;19.30;99.90
27759;DHT22;15148;48.972;12.794;2023-07-13T01:22:31;19.40;99.90
27759;DHT22;15148;48.972;12.794;2023-07-13T01:27:34;19.30;99.90
27759;DHT22;15148;48.972;12.794;2023-07-13T01:32:36;19.30;99.90
27759;DHT22;15148;48.972;12.794;2023-07-13T01:37:39;19.30;99.90
27759;DHT22;15148;48.972;12.794;2023-07-13T01:42:41;19.30;99.90
27759;DHT22;15148;48.972;12.794;2023-07-13T01:47:43;19.30;99.90
27759;DHT22;15148;48.972;12.794;2023-07-13T01:52:45;19.30;99.90
27759;DHT22;15148;48.972;12.794;2023-07-13T01:57:48;19.40;99.90
27759;DHT22;15148;48.972;12.794;2023-07-13T02:02:51;19.50;99.90
27759;DHT22;15148;48.972;12.794;2023-07-13T02:07:53;19.50;99.90
27759;DHT22;15148;48.972;12.794;2023-07-13T02:12:56;19.60;99.90
27759;DHT22;15148;48.972;12.794;2023-07-13T02:17:58;19.60;99.90
27759;DHT22;15148;48.972;12.794;2023-07-13T02:23:00;19.50;99.90
27759;DHT22;15148;48.972;12.794;2023-07-13T02:28:02;19.60;99.90
27759;DHT22;15148;48.972;12.794;2023-07-13T02:33:05;19.60;99.90
27759;DHT22;15148;48.972;12.794;2023-07-13T02:38:07;19.60;99.90
27759;DHT22;15148;48.972;12.794;2023-07-13T02:43:10;19.60;99.90
27759;DHT22;15148;48.972;12.794;2023-07-13T02:48:13;19.60;99.90
27759;DHT22;15148;48.972;12.794;2023-07-13T02:53:16;19.50;99.90
27759;DHT22;15148;48.972;12.794;2023-07-13T02:58:18;19.50;99.90
27759;DHT22;15148;48.972;12.794;2023-07-13T03:03:21;19.50;99.90
27759;DHT22;15148;48.972;12.794;2023-07-13T03:08:23;19.50;99.90
27759;DHT22;15148;48.972;12.794;2023-07-13T03:13:27;19.40;99.90
27759;DHT22;15148;48.972;12.794;2023-07-13T03:18:29;19.50;99.90
27759;DHT22;15148;48.972;12.794;2023-07-13T03:23:37;19.50;99.90
27759;DHT22;15148;48.972;12.794;2023-07-13T03:28:39;19.50;99.90
27759;DHT22;15148;48.972;12.794;2023-07-13T03:33:44;19.40;99.90
27759;DHT22;15148;48.972;12.794;2023-07-13T03:38:49;19.40;99.90
27759;DHT22;15148;48.972;12.794;2023-07-13T03:43:53;19.40;99.90
27759;DHT22;15148;48.972;12.794;2023-07-13T03:48:58;19.40;99.90
27759;DHT22;15148;48.972;12.794;2023-07-13T03:54:00;19.40;99.90
27759;DHT22;15148;48.972;12.794;2023-07-13T03:59:02;19.40;99.90
27759;DHT22;15148;48.972;12.794;2023-07-13T04:04:05;19.40;99.90
27759;DHT22;15148;48.972;12.794;2023-07-13T04:09:07;19.40;99.90
27759;DHT22;15148;48.972;12.794;2023-07-13T04:14:11;19.40;99.90
27759;DHT22;15148;48.972;12.794;2023-07-13T04:19:13;19.40;99.90
27759;DHT22;15148;48.972;12.794;2023-07-13T04:24:15;19.40;99.90
27759;DHT22;15148;48.972;12.794;2023-07-13T04:29:17;19.40;99.90
27759;DHT22;15148;48.972;12.794;2023-07-13T04:34:18;19.40;99.90
27759;DHT22;15148;48.972;12.794;2023-07-13T04:39:20;19.40;99.90
27759;DHT22;15148;48.972;12.794;2023-07-13T04:44:22;19.40;99.90
27759;DHT22;15148;48.972;12.794;2023-07-13T04:49:24;19.40;99.90
27759;DHT22;15148;48.972;12.794;2023-07-13T04:54:26;19.40;99.90
27759;DHT22;15148;48.972;12.794;2023-07-13T04:59:28;19.50;99.90
27759;DHT22;15148;48.972;12.794;2023-07-13T05:04:30;19.60;99.90
27759;DHT22;15148;48.972;12.794;2023-07-13T05:09:32;19.60;99.90
27759;DHT22;15148;48.972;12.794;2023-07-13T05:14:34;19.60;99.90
27759;DHT22;15148;48.972;12.794;2023-07-13T05:19:36;19.70;99.90
27759;DHT22;15148;48.972;12.794;2023-07-13T05:24:38;19.70;99.90
27759;DHT22;15148;48.972;12.794;2023-07-13T05:29:39;19.80;99.90
27759;DHT22;15148;48.972;12.794;2023-07-13T05:34:41;19.80;99.90
27759;DHT22;15148;48.972;12.794;2023-07-13T05:39:43;19.80;99.90
27759;DHT22;15148;48.972;12.794;2023-07-13T05:44:45;19.90;99.90
27759;DHT22;15148;48.972;12.794;2023-07-13T05:49:47;19.90;99.90
27759;DHT22;15148;48.972;12.794;2023-07-13T05:54:49;19.80;99.90
27759;DHT22;15148;48.972;12.794;2023-07-13T05:59:51;19.80;99.90
27759;DHT22;15148;48.972;12.794;2023-07-13T06:04:53;19.90;99.90
27759;DHT22;15148;48.972;12.794;2023-07-13T06:09:54;19.90;99.90
27759;DHT22;15148;48.972;12.794;2023-07-13T06:14:56;20.00;99.90
27759;DHT22;15148;48.972;12.794;2023-07-13T06:19:58;20.10;99.90
27759;DHT22;15148;48.972;12.794;2023-07-13T06:25:00;20.40;99.90
27759;DHT22;15148;48.972;12.794;2023-07-13T06:30:02;20.70;99.90
27759;DHT22;15148;48.972;12.794;2023-07-13T06:35:05;20.80;99.90
27759;DHT22;15148;48.972;12.794;2023-07-13T06:40:07;21.30;99.90
27759;DHT22;15148;48.972;12.794;2023-07-13T06:45:10;21.90;99.90
27759;DHT22;15148;48.972;12.794;2023-07-13T06:50:11;22.30;99.90
27759;DHT22;15148;48.972;12.794;2023-07-13T06:55:13;22.10;99.90
27759;DHT22;15148;48.972;12.794;2023-07-13T07:00:16;21.90;99.90
27759;DHT22;15148;48.972;12.794;2023-07-13T07:05:17;21.70;99.90
27759;DHT22;15148;48.972;12.794;2023-07-13T07:10:23;21.50;99.90
27759;DHT22;15148;48.972;12.794;2023-07-13T07:15:26;21.70;99.90
27759;DHT22;15148;48.972;12.794;2023-07-13T07:20:27;21.70;99.90
27759;DHT22;15148;48.972;12.794;2023-07-13T07:25:29;21.70;99.90
27759;DHT22;15148;48.972;12.794;2023-07-13T07:30:33;22.30;99.90
27759;DHT22;15148;48.972;12.794;2023-07-13T07:35:38;22.80;99.90
27759;DHT22;15148;48.972;12.794;2023-07-13T07:41:03;22.90;99.90
27759;DHT22;15148;48.972;12.794;2023-07-13T07:46:08;23.00;99.90
27759;DHT22;15148;48.972;12.794;2023-07-13T07:51:12;23.00;99.90
27759;DHT22;15148;48.972;12.794;2023-07-13T07:56:14;23.40;99.90
27759;DHT22;15148;48.972;12.794;2023-07-13T08:01:20;23.50;99.90
27759;DHT22;15148;48.972;12.794;2023-07-13T08:06:25;23.40;99.90
27759;DHT22;15148;48.972;12.794;2023-07-13T08:11:30;23.70;99.90
27759;DHT22;15148;48.972;12.794;2023-07-13T08:16:35;23.60;99.90
27759;DHT22;15148;48.972;12.794;2023-07-13T08:21:37;23.90;99.90
27759;DHT22;15148;48.972;12.794;2023-07-13T08:26:39;23.80;99.90
27759;DHT22;15148;48.972;12.794;2023-07-13T08:31:41;23.80;99.90
27759;DHT22;15148;48.972;12.794;2023-07-13T08:36:43;23.80;99.90
27759;DHT22;15148;48.972;12.794;2023-07-13T08:41:47;23.90;99.90
27759;DHT22;15148;48.972;12.794;2023-07-13T08:46:53;24.00;99.90
27759;DHT22;15148;48.972;12.794;2023-07-13T08:52:52;24.30;99.90
27759;DHT22;15148;48.972;12.794;2023-07-13T08:57:35;24.10;99.90
27759;DHT22;15148;48.972;12.794;2023-07-13T09:02:57;23.90;99.90
27759;DHT22;15148;48.972;12.794;2023-07-13T09:18:49;23.90;99.90
27759;DHT22;15148;48.972;12.794;2023-07-13T09:23:54;24.20;99.90
27759;DHT22;15148;48.972;12.794;2023-07-13T09:29:03;24.40;99.90
27759;DHT22;15148;48.972;12.794;2023-07-13T09:34:11;24.80;99.90
27759;DHT22;15148;48.972;12.794;2023-07-13T09:44:30;25.20;99.90
27759;DHT22;15148;48.972;12.794;2023-07-13T09:49:35;25.00;99.90
27759;DHT22;15148;48.972;12.794;2023-07-13T09:54:44;25.10;99.90
27759;DHT22;15148;48.972;12.794;2023-07-13T09:59:49;25.20;99.90
27759;DHT22;15148;48.972;12.794;2023-07-13T10:05:17;25.60;99.90
27759;DHT22;15148;48.972;12.794;2023-07-13T10:10:23;25.90;99.90
27759;DHT22;15148;48.972;12.794;2023-07-13T10:15:25;25.80;99.90
27759;DHT22;15148;48.972;12.794;2023-07-13T10:20:27;25.70;99.90
27759;DHT22;15148;48.972;12.794;2023-07-13T10:25:38;25.70;99.90
27759;DHT22;15148;48.972;12.794;2023-07-13T10:30:43;25.80;99.90
27759;DHT22;15148;48.972;12.794;2023-07-13T10:35:48;26.00;99.90
27759;DHT22;15148;48.972;12.794;2023-07-13T10:41:10;26.10;99.90
27759;DHT22;15148;48.972;12.794;2023-07-13T10:46:16;26.00;99.90
27759;DHT22;15148;48.972;12.794;2023-07-13T10:51:20;25.60;99.90
27759;DHT22;15148;48.972;12.794;2023-07-13T10:56:29;25.40;99.90
27759;DHT22;15148;48.972;12.794;2023-07-13T11:07:29;25.30;99.90
27759;DHT22;15148;48.972;12.794;2023-07-13T11:17:51;25.30;99.90
27759;DHT22;15148;48.972;12.794;2023-07-13T11:28:18;25.60;99.90
27759;DHT22;15148;48.972;12.794;2023-07-13T11:38:47;26.10;99.90
27759;DHT22;15148;48.972;12.794;2023-07-13T11:43:54;26.20;99.90
27759;DHT22;15148;48.972;12.794;2023-07-13T11:48:56;26.30;99.90
27759;DHT22;15148;48.972;12.794;2023-07-13T11:54:02;26.30;99.90
27759;DHT22;15148;48.972;12.794;2023-07-13T11:59:07;26.30;99.90
27759;DHT22;15148;48.972;12.794;2023-07-13T12:04:28;26.50;99.90
27759;DHT22;15148;48.972;12.794;2023-07-13T12:09:32;26.70;99.90
27759;DHT22;15148;48.972;12.794;2023-07-13T12:14:34;26.80;99.90
27759;DHT22;15148;48.972;12.794;2023-07-13T12:19:36;26.80;99.90
27759;DHT22;15148;48.972;12.794;2023-07-13T12:24:40;27.00;99.90
27759;DHT22;15148;48.972;12.794;2023-07-13T12:29:53;27.00;98.00
27759;DHT22;15148;48.972;12.794;2023-07-13T12:35:16;27.10;99.00
27759;DHT22;15148;48.972;12.794;2023-07-13T12:40:27;27.20;97.70
27759;DHT22;15148;48.972;12.794;2023-07-13T12:45:31;27.20;99.10
27759;DHT22;15148;48.972;12.794;2023-07-13T12:50:46;27.30;95.80
27759;DHT22;15148;48.972;12.794;2023-07-13T12:55:54;27.20;95.60
27759;DHT22;15148;48.972;12.794;2023-07-13T13:01:00;27.20;95.70
27759;DHT22;15148;48.972;12.794;2023-07-13T13:06:05;27.20;93.30
27759;DHT22;15148;48.972;12.794;2023-07-13T13:11:08;27.10;93.00
27759;DHT22;15148;48.972;12.794;2023-07-13T13:16:23;27.10;94.00
27759;DHT22;15148;48.972;12.794;2023-07-13T13:21:33;27.20;94.10
27759;DHT22;15148;48.972;12.794;2023-07-13T13:26:35;27.10;92.10
27759;DHT22;15148;48.972;12.794;2023-07-13T13:31:37;26.80;91.50
27759;DHT22;15148;48.972;12.794;2023-07-13T13:36:41;26.50;92.10
27759;DHT22;15148;48.972;12.794;2023-07-13T13:41:43;26.70;95.20
27759;DHT22;15148;48.972;12.794;2023-07-13T13:46:47;26.60;92.70
27759;DHT22;15148;48.972;12.794;2023-07-13T13:51:50;26.40;92.60
27759;DHT22;15148;48.972;12.794;2023-07-13T13:56:52;26.10;89.60
27759;DHT22;15148;48.972;12.794;2023-07-13T14:01:54;25.70;92.10
27759;DHT22;15148;48.972;12.794;2023-07-13T14:06:56;25.50;96.60
27759;DHT22;15148;48.972;12.794;2023-07-13T14:11:58;25.40;95.90
27759;DHT22;15148;48.972;12.794;2023-07-13T14:17:00;25.50;94.70
27759;DHT22;15148;48.972;12.794;2023-07-13T14:22:02;25.50;95.40
27759;DHT22;15148;48.972;12.794;2023-07-13T14:27:04;25.50;94.80
27759;DHT22;15148;48.972;12.794;2023-07-13T14:32:11;25.70;96.30
27759;DHT22;15148;48.972;12.794;2023-07-13T14:37:14;25.60;94.00
27759;DHT22;15148;48.972;12.794;2023-07-13T14:42:17;25.50;93.30
27759;DHT22;15148;48.972;12.794;2023-07-13T14:47:20;25.70;91.80
27759;DHT22;15148;48.972;12.794;2023-07-13T14:52:23;25.60;90.30
27759;DHT22;15148;48.972;12.794;2023-07-13T14:57:28;25.40;86.30
27759;DHT22;15148;48.972;12.794;2023-07-13T15:02:34;25.30;90.50
27759;DHT22;15148;48.972;12.794;2023-07-13T15:07:37;25.20;91.40
27759;DHT22;15148;48.972;12.794;2023-07-13T15:12:39;25.30;90.30
27759;DHT22;15148;48.972;12.794;2023-07-13T15:17:43;25.20;90.90
27759;DHT22;15148;48.972;12.794;2023-07-13T15:22:46;25.10;88.60
27759;DHT22;15148;48.972;12.794;2023-07-13T15:27:49;25.10;89.80
27759;DHT22;15148;48.972;12.794;2023-07-13T15:32:50;25.00;88.50
27759;DHT22;15148;48.972;12.794;2023-07-13T15:37:53;24.70;90.60
27759;DHT22;15148;48.972;12.794;2023-07-13T15:42:55;24.50;89.80
27759;DHT22;15148;48.972;12.794;2023-07-13T15:47:57;24.50;92.30
27759;DHT22;15148;48.972;12.794;2023-07-13T15:52:59;24.40;91.80
27759;DHT22;15148;48.972;12.794;2023-07-13T15:58:00;24.30;94.50
27759;DHT22;15148;48.972;12.794;2023-07-13T16:03:03;24.20;91.60
27759;DHT22;15148;48.972;12.794;2023-07-13T16:08:17;24.10;90.00
27759;DHT22;15148;48.972;12.794;2023-07-13T16:13:22;24.00;89.40
27759;DHT22;15148;48.972;12.794;2023-07-13T16:18:26;23.90;93.50
27759;DHT22;15148;48.972;12.794;2023-07-13T16:23:30;23.70;93.20
27759;DHT22;15148;48.972;12.794;2023-07-13T16:28:32;23.70;90.90
27759;DHT22;15148;48.972;12.794;2023-07-13T16:33:35;23.70;93.90
27759;DHT22;15148;48.972;12.794;2023-07-13T16:38:38;23.70;92.40
27759;DHT22;15148;48.972;12.794;2023-07-13T16:43:40;23.60;90.50
27759;DHT22;15148;48.972;12.794;2023-07-13T16:48:42;23.60;93.40
27759;DHT22;15148;48.972;12.794;2023-07-13T16:53:44;23.50;94.40
27759;DHT22;15148;48.972;12.794;2023-07-13T16:58:46;23.30;93.00
27759;DHT22;15148;48.972;12.794;2023-07-13T17:03:48;23.30;93.10
27759;DHT22;15148;48.972;12.794;2023-07-13T17:08:52;23.30;93.90
27759;DHT22;15148;48.972;12.794;2023-07-13T17:13:55;23.20;91.60
27759;DHT22;15148;48.972;12.794;2023-07-13T17:18:57;23.20;91.70
27759;DHT22;15148;48.972;12.794;2023-07-13T17:24:00;23.00;95.40
27759;DHT22;15148;48.972;12.794;2023-07-13T17:29:02;22.90;96.50
27759;DHT22;15148;48.972;12.794;2023-07-13T17:34:09;22.70;99.20
27759;DHT22;15148;48.972;12.794;2023-07-13T17:39:19;22.50;99.90
27759;DHT22;15148;48.972;12.794;2023-07-13T17:44:21;22.40;99.70
27759;DHT22;15148;48.972;12.794;2023-07-13T17:49:24;22.30;98.90
27759;DHT22;15148;48.972;12.794;2023-07-13T17:54:34;22.10;99.90
27759;DHT22;15148;48.972;12.794;2023-07-13T17:59:36;21.80;99.90
27759;DHT22;15148;48.972;12.794;2023-07-13T18:04:37;21.60;99.90
27759;DHT22;15148;48.972;12.794;2023-07-13T18:09:40;21.40;99.90
27759;DHT22;15148;48.972;12.794;2023-07-13T18:14:42;21.20;99.90
27759;DHT22;15148;48.972;12.794;2023-07-13T18:19:46;21.00;99.90
27759;DHT22;15148;48.972;12.794;2023-07-13T18:24:49;20.80;99.90
27759;DHT22;15148;48.972;12.794;2023-07-13T18:29:51;20.60;99.90
27759;DHT22;15148;48.972;12.794;2023-07-13T18:34:53;20.50;99.90
27759;DHT22;15148;48.972;12.794;2023-07-13T18:39:55;20.40;99.90
27759;DHT22;15148;48.972;12.794;2023-07-13T18:44:57;20.30;99.90
27759;DHT22;15148;48.972;12.794;2023-07-13T18:49:59;20.10;99.90
27759;DHT22;15148;48.972;12.794;2023-07-13T18:55:01;19.90;99.90
27759;DHT22;15148;48.972;12.794;2023-07-13T19:00:03;19.80;99.90
27759;DHT22;15148;48.972;12.794;2023-07-13T19:05:14;19.60;99.90
27759;DHT22;15148;48.972;12.794;2023-07-13T19:10:19;19.60;99.90
27759;DHT22;15148;48.972;12.794;2023-07-13T19:15:22;19.40;99.90
27759;DHT22;15148;48.972;12.794;2023-07-13T19:20:27;19.30;99.90
27759;DHT22;15148;48.972;12.794;2023-07-13T19:25:29;19.20;99.90
27759;DHT22;15148;48.972;12.794;2023-07-13T19:30:31;19.00;99.90
27759;DHT22;15148;48.972;12.794;2023-07-13T19:35:33;18.90;99.90
27759;DHT22;15148;48.972;12.794;2023-07-13T19:40:36;18.90;99.90
27759;DHT22;15148;48.972;12.794;2023-07-13T19:45:38;18.70;99.90
27759;DHT22;15148;48.972;12.794;2023-07-13T19:50:40;18.60;99.90
27759;DHT22;15148;48.972;12.794;2023-07-13T19:55:44;18.50;99.90
27759;DHT22;15148;48.972;12.794;2023-07-13T20:00:46;18.40;99.90
27759;DHT22;15148;48.972;12.794;2023-07-13T20:05:48;18.30;99.90
27759;DHT22;15148;48.972;12.794;2023-07-13T20:10:52;18.20;99.90
27759;DHT22;15148;48.972;12.794;2023-07-13T20:15:54;18.20;99.90
27759;DHT22;15148;48.972;12.794;2023-07-13T20:20:56;18.00;99.90
27759;DHT22;15148;48.972;12.794;2023-07-13T20:25:58;17.90;99.90
27759;DHT22;15148;48.972;12.794;2023-07-13T20:31:00;17.70;99.90
27759;DHT22;15148;48.972;12.794;2023-07-13T20:36:04;17.70;99.90
27759;DHT22;15148;48.972;12.794;2023-07-13T20:41:10;17.60;99.90
27759;DHT22;15148;48.972;12.794;2023-07-13T20:46:15;17.60;99.90
27759;DHT22;15148;48.972;12.794;2023-07-13T20:51:18;17.50;99.90
27759;DHT22;15148;48.972;12.794;2023-07-13T20:56:23;17.50;99.90
27759;DHT22;15148;48.972;12.794;2023-07-13T21:01:29;17.40;99.90
27759;DHT22;15148;48.972;12.794;2023-07-13T21:06:33;17.40;99.90
27759;DHT22;15148;48.972;12.794;2023-07-13T21:11:35;17.30;99.90
27759;DHT22;15148;48.972;12.794;2023-07-13T21:16:37;17.20;99.90
27759;DHT22;15148;48.972;12.794;2023-07-13T21:21:39;17.30;99.90
27759;DHT22;15148;48.972;12.794;2023-07-13T21:26:41;17.40;99.90
27759;DHT22;15148;48.972;12.794;2023-07-13T21:31:44;17.40;99.90
27759;DHT22;15148;48.972;12.794;2023-07-13T21:36:46;17.50;99.90
27759;DHT22;15148;48.972;12.794;2023-07-13T21:41:48;17.50;99.90
27759;DHT22;15148;48.972;12.794;2023-07-13T21:46:50;17.60;99.90
27759;DHT22;15148;48.972;12.794;2023-07-13T21:51:52;17.60;99.90
27759;DHT22;15148;48.972;12.794;2023-07-13T21:56:55;17.70;99.90
27759;DHT22;15148;48.972;12.794;2023-07-13T22:01:57;17.70;99.90
27759;DHT22;15148;48.972;12.794;2023-07-13T22:06:59;17.70;99.90
27759;DHT22;15148;48.972;12.794;2023-07-13T22:12:02;17.70;99.90
27759;DHT22;15148;48.972;12.794;2023-07-13T22:17:05;17.80;99.90
27759;DHT22;15148;48.972;12.794;2023-07-13T22:22:07;17.80;99.90
27759;DHT22;15148;48.972;12.794;2023-07-13T22:27:10;17.70;99.90
27759;DHT22;15148;48.972;12.794;2023-07-13T22:32:12;17.70;99.90
27759;DHT22;15148;48.972;12.794;2023-07-13T22:37:21;17.60;99.90
27759;DHT22;15148;48.972;12.794;2023-07-13T22:42:23;17.60;99.90
27759;DHT22;15148;48.972;12.794;2023-07-13T22:47:25;17.60;99.90
27759;DHT22;15148;48.972;12.794;2023-07-13T22:52:27;17.60;99.90
27759;DHT22;15148;48.972;12.794;2023-07-13T22:57:28;17.50;99.90
27759;DHT22;15148;48.972;12.794;2023-07-13T23:02:30;17.40;99.90
27759;DHT22;15148;48.972;12.794;2023-07-13T23:07:32;17.20;99.90
27759;DHT22;15148;48.972;12.794;2023-07-13T23:12:35;17.20;99.90
27759;DHT22;15148;48.972;12.794;2023-07-13T23:17:38;17.00;99.90
27759;DHT22;15148;48.972;12.794;2023-07-13T23:22:41;16.90;99.90
27759;DHT22;15148;48.972;12.794;2023-07-13T23:27:43;16.80;99.90
27759;DHT22;15148;48.972;12.794;2023-07-13T23:32:46;16.70;99.90
27759;DHT22;15148;48.972;12.794;2023-07-13T23:37:49;16.60;99.90
27759;DHT22;15148;48.972;12.794;2023-07-13T23:42:52;16.40;99.90
27759;DHT22;15148;48.972;12.794;2023-07-13T23:47:55;16.40;99.90
27759;DHT22;15148;48.972;12.794;2023-07-13T23:52:58;16.30;99.90
27759;DHT22;15148;48.972;12.794;2023-07-13T23:58:02;16.10;99.90
